createdAt,value
2023-03-16T00:00:48.783Z,885.00
2023-03-16T00:04:48.950Z,874.00
2023-03-16T04:24:24.559Z,522.00
2023-03-16T04:28:24.757Z,520.00
2023-03-16T04:32:25.042Z,519.00
2023-03-16T04:36:24.919Z,520.00
2023-03-16T04:40:24.907Z,528.00
2023-03-16T04:44:24.831Z,527.00
2023-03-16T05:16:24.683Z,532.00
2023-03-16T05:20:24.606Z,528.00
2023-03-16T05:24:24.567Z,530.00
2023-03-16T05:28:24.577Z,524.00
2023-03-16T05:32:24.762Z,528.00
2023-03-16T05:36:24.990Z,530.00
2023-03-16T05:40:24.924Z,531.00
2023-03-16T05:44:24.922Z,529.00
2023-03-16T05:48:24.855Z,534.00
2023-03-16T05:52:24.829Z,530.00
2023-03-16T05:56:24.791Z,534.00
2023-03-16T06:00:24.771Z,535.00
2023-03-16T06:04:24.776Z,537.00
2023-03-16T07:04:34.960Z,906.00
2023-03-16T10:20:36.542Z,549.00
2023-03-16T19:36:39.322Z,2123.00
2023-03-16T19:40:39.406Z,2112.00
2023-03-16T19:44:39.576Z,2107.00
2023-03-16T19:48:39.740Z,2087.00
2023-03-16T19:52:39.921Z,2073.00
2023-03-16T19:56:40.245Z,2078.00
2023-03-16T20:00:40.228Z,2041.00
2023-03-16T20:04:40.499Z,2046.00
2023-03-16T20:08:40.590Z,2048.00
2023-03-16T20:12:40.719Z,2028.00
2023-03-16T20:16:40.917Z,2022.00
2023-03-16T20:20:41.073Z,2017.00
2023-03-16T20:24:43.866Z,1998.00
2023-03-16T20:28:41.216Z,1998.00
2023-03-16T20:32:41.256Z,1976.00
2023-03-16T20:36:41.137Z,1969.00
2023-03-16T20:40:41.129Z,1969.00
2023-03-16T20:44:41.759Z,1976.00
2023-03-16T20:48:41.038Z,1961.00
2023-03-16T20:52:41.046Z,1942.00
2023-03-16T20:56:41.286Z,1938.00
2023-03-16T21:00:41.762Z,1932.00
2023-03-16T21:04:41.671Z,1929.00
2023-03-16T21:08:41.837Z,1927.00
2023-03-16T21:12:42.072Z,1919.00
2023-03-16T21:16:42.238Z,1892.00
2023-03-16T21:20:42.434Z,1891.00
2023-03-16T21:24:42.613Z,1887.00
2023-03-16T21:28:42.833Z,1866.00
2023-03-16T21:32:43.142Z,1878.00
2023-03-16T21:36:44.441Z,1863.00
2023-03-16T21:40:43.455Z,1856.00
2023-03-16T21:48:43.644Z,1829.00
2023-03-16T21:52:43.611Z,1842.00
2023-03-16T21:56:43.568Z,1819.00
2023-03-16T22:00:43.818Z,1814.00
2023-03-16T22:04:43.486Z,1810.00
2023-03-16T22:08:50.298Z,1800.00
2023-03-16T22:12:43.416Z,1798.00
2023-03-16T22:16:43.933Z,1780.00
2023-03-16T22:20:43.414Z,1775.00
2023-03-16T22:24:46.284Z,1775.00
2023-03-16T22:28:43.595Z,1760.00
2023-03-16T22:32:43.650Z,1763.00
2023-03-16T22:36:43.520Z,1752.00
